ADDS METAR Data INFO
IDs: Format: Raw Decoded Include TAF

Data at: 0846 UTC 22 Jul 2017

METAR for:KX60 (Williston Muni, FL, US)
Text:KX60 220835Z AUTO 00000KT 10SM CLR 24/24 A3002 RMK A01
Temperature: 24.0°C ( 75°F)
Dewpoint: 24.0°C ( 75°F) [RH = 100%]
Pressure (altimeter):30.02 inches Hg (1016.7 mb)
Winds:calm
Visibility:10 or more sm (16+ km)
Ceiling:at least 12,000 feet AGL
Clouds:sky clear below 12,000 feet AGL
QC Flag:automated observation with no human augmentation